sensor_id;sensor_type;location;lat;lon;timestamp;P1;durP1;ratioP1;P2;durP2;ratioP2
48849;SDS011;63210;53.370;6.770;2023-04-19T00:02:05;4.60;;;3.63;;
48849;SDS011;63210;53.370;6.770;2023-04-19T00:04:30;11.68;;;7.63;;
48849;SDS011;63210;53.370;6.770;2023-04-19T00:06:57;8.38;;;3.92;;
48849;SDS011;63210;53.370;6.770;2023-04-19T00:09:22;8.98;;;5.88;;
48849;SDS011;63210;53.370;6.770;2023-04-19T00:11:48;13.25;;;6.28;;
48849;SDS011;63210;53.370;6.770;2023-04-19T00:14:13;11.05;;;7.13;;
48849;SDS011;63210;53.370;6.770;2023-04-19T00:16:38;10.35;;;5.82;;
48849;SDS011;63210;53.370;6.770;2023-04-19T00:19:03;10.83;;;6.93;;
48849;SDS011;63210;53.370;6.770;2023-04-19T00:21:29;9.60;;;7.47;;
48849;SDS011;63210;53.370;6.770;2023-04-19T00:23:55;10.18;;;6.95;;
48849;SDS011;63210;53.370;6.770;2023-04-19T00:26:20;12.10;;;7.50;;
48849;SDS011;63210;53.370;6.770;2023-04-19T00:28:46;11.98;;;7.47;;
48849;SDS011;63210;53.370;6.770;2023-04-19T00:31:11;13.32;;;7.72;;
48849;SDS011;63210;53.370;6.770;2023-04-19T00:33:36;10.10;;;7.37;;
48849;SDS011;63210;53.370;6.770;2023-04-19T00:36:01;12.10;;;7.23;;
48849;SDS011;63210;53.370;6.770;2023-04-19T00:38:27;12.23;;;7.95;;
48849;SDS011;63210;53.370;6.770;2023-04-19T00:40:52;11.95;;;7.70;;
48849;SDS011;63210;53.370;6.770;2023-04-19T00:43:17;11.30;;;7.97;;
48849;SDS011;63210;53.370;6.770;2023-04-19T00:45:43;13.63;;;8.10;;
48849;SDS011;63210;53.370;6.770;2023-04-19T00:48:09;15.50;;;8.07;;
48849;SDS011;63210;53.370;6.770;2023-04-19T00:50:34;13.52;;;8.20;;
48849;SDS011;63210;53.370;6.770;2023-04-19T00:53:00;8.48;;;4.70;;
48849;SDS011;63210;53.370;6.770;2023-04-19T00:55:26;7.88;;;5.72;;
48849;SDS011;63210;53.370;6.770;2023-04-19T00:57:52;7.95;;;6.03;;
48849;SDS011;63210;53.370;6.770;2023-04-19T01:00:17;10.88;;;7.75;;
48849;SDS011;63210;53.370;6.770;2023-04-19T01:02:42;8.75;;;5.70;;
48849;SDS011;63210;53.370;6.770;2023-04-19T01:05:08;14.27;;;6.60;;
48849;SDS011;63210;53.370;6.770;2023-04-19T01:07:33;10.02;;;7.03;;
48849;SDS011;63210;53.370;6.770;2023-04-19T01:09:59;7.40;;;5.00;;
48849;SDS011;63210;53.370;6.770;2023-04-19T01:12:24;10.85;;;6.70;;
48849;SDS011;63210;53.370;6.770;2023-04-19T01:14:49;8.60;;;5.10;;
48849;SDS011;63210;53.370;6.770;2023-04-19T01:17:15;11.05;;;7.53;;
48849;SDS011;63210;53.370;6.770;2023-04-19T01:19:40;8.52;;;6.07;;
48849;SDS011;63210;53.370;6.770;2023-04-19T01:22:06;12.18;;;6.72;;
48849;SDS011;63210;53.370;6.770;2023-04-19T01:24:32;8.13;;;4.75;;
48849;SDS011;63210;53.370;6.770;2023-04-19T01:26:57;10.98;;;6.63;;
48849;SDS011;63210;53.370;6.770;2023-04-19T01:29:22;11.10;;;5.53;;
48849;SDS011;63210;53.370;6.770;2023-04-19T01:31:48;7.78;;;5.50;;
48849;SDS011;63210;53.370;6.770;2023-04-19T01:34:17;7.18;;;5.03;;
48849;SDS011;63210;53.370;6.770;2023-04-19T01:36:42;10.52;;;5.95;;
48849;SDS011;63210;53.370;6.770;2023-04-19T01:39:08;8.02;;;5.28;;
48849;SDS011;63210;53.370;6.770;2023-04-19T01:41:33;11.32;;;6.85;;
48849;SDS011;63210;53.370;6.770;2023-04-19T01:43:58;7.60;;;4.83;;
48849;SDS011;63210;53.370;6.770;2023-04-19T01:46:24;14.75;;;5.00;;
48849;SDS011;63210;53.370;6.770;2023-04-19T01:48:50;10.35;;;7.60;;
48849;SDS011;63210;53.370;6.770;2023-04-19T01:51:15;6.18;;;4.70;;
48849;SDS011;63210;53.370;6.770;2023-04-19T01:53:41;9.02;;;6.38;;
48849;SDS011;63210;53.370;6.770;2023-04-19T01:56:06;9.50;;;6.70;;
48849;SDS011;63210;53.370;6.770;2023-04-19T01:58:31;12.40;;;6.47;;
48849;SDS011;63210;53.370;6.770;2023-04-19T02:00:57;10.55;;;5.20;;
48849;SDS011;63210;53.370;6.770;2023-04-19T02:03:22;9.32;;;5.68;;
48849;SDS011;63210;53.370;6.770;2023-04-19T02:05:47;11.40;;;6.70;;
48849;SDS011;63210;53.370;6.770;2023-04-19T02:08:13;10.13;;;6.63;;
48849;SDS011;63210;53.370;6.770;2023-04-19T02:10:38;12.45;;;5.85;;
48849;SDS011;63210;53.370;6.770;2023-04-19T02:13:03;9.23;;;5.68;;
48849;SDS011;63210;53.370;6.770;2023-04-19T02:15:29;8.30;;;4.47;;
48849;SDS011;63210;53.370;6.770;2023-04-19T02:17:54;11.02;;;5.50;;
48849;SDS011;63210;53.370;6.770;2023-04-19T02:20:19;10.57;;;6.87;;
48849;SDS011;63210;53.370;6.770;2023-04-19T02:22:45;7.50;;;5.10;;
48849;SDS011;63210;53.370;6.770;2023-04-19T02:25:11;7.30;;;4.40;;
48849;SDS011;63210;53.370;6.770;2023-04-19T02:27:37;7.70;;;4.35;;
48849;SDS011;63210;53.370;6.770;2023-04-19T02:30:02;9.68;;;5.45;;
48849;SDS011;63210;53.370;6.770;2023-04-19T02:32:27;12.02;;;6.82;;
48849;SDS011;63210;53.370;6.770;2023-04-19T02:34:52;13.10;;;7.63;;
48849;SDS011;63210;53.370;6.770;2023-04-19T02:37:18;12.10;;;6.70;;
48849;SDS011;63210;53.370;6.770;2023-04-19T02:39:43;13.10;;;7.40;;
48849;SDS011;63210;53.370;6.770;2023-04-19T02:42:09;11.57;;;5.90;;
48849;SDS011;63210;53.370;6.770;2023-04-19T02:44:35;14.00;;;7.43;;
48849;SDS011;63210;53.370;6.770;2023-04-19T02:47:00;12.27;;;6.43;;
48849;SDS011;63210;53.370;6.770;2023-04-19T02:49:25;8.02;;;5.13;;
48849;SDS011;63210;53.370;6.770;2023-04-19T02:51:51;11.40;;;6.55;;
48849;SDS011;63210;53.370;6.770;2023-04-19T02:54:16;9.82;;;5.95;;
48849;SDS011;63210;53.370;6.770;2023-04-19T02:56:42;9.20;;;5.63;;
48849;SDS011;63210;53.370;6.770;2023-04-19T02:59:07;9.95;;;5.95;;
48849;SDS011;63210;53.370;6.770;2023-04-19T03:01:32;10.65;;;6.10;;
48849;SDS011;63210;53.370;6.770;2023-04-19T03:03:57;15.18;;;7.00;;
48849;SDS011;63210;53.370;6.770;2023-04-19T03:06:23;10.88;;;5.47;;
48849;SDS011;63210;53.370;6.770;2023-04-19T03:08:48;10.50;;;5.90;;
48849;SDS011;63210;53.370;6.770;2023-04-19T03:11:14;7.15;;;5.20;;
48849;SDS011;63210;53.370;6.770;2023-04-19T03:13:40;10.43;;;5.47;;
48849;SDS011;63210;53.370;6.770;2023-04-19T03:16:05;6.43;;;3.88;;
48849;SDS011;63210;53.370;6.770;2023-04-19T03:18:31;6.63;;;5.15;;
48849;SDS011;63210;53.370;6.770;2023-04-19T03:20:56;12.23;;;4.63;;
48849;SDS011;63210;53.370;6.770;2023-04-19T03:23:21;9.93;;;6.53;;
48849;SDS011;63210;53.370;6.770;2023-04-19T03:25:46;10.48;;;7.18;;
48849;SDS011;63210;53.370;6.770;2023-04-19T03:28:13;9.65;;;6.40;;
48849;SDS011;63210;53.370;6.770;2023-04-19T03:30:38;11.05;;;6.40;;
48849;SDS011;63210;53.370;6.770;2023-04-19T03:33:03;6.43;;;4.50;;
48849;SDS011;63210;53.370;6.770;2023-04-19T03:35:29;9.40;;;6.07;;
48849;SDS011;63210;53.370;6.770;2023-04-19T03:37:56;12.38;;;6.85;;
48849;SDS011;63210;53.370;6.770;2023-04-19T03:40:21;8.25;;;5.22;;
48849;SDS011;63210;53.370;6.770;2023-04-19T03:42:46;12.10;;;6.70;;
48849;SDS011;63210;53.370;6.770;2023-04-19T03:45:11;7.55;;;5.53;;
48849;SDS011;63210;53.370;6.770;2023-04-19T03:47:37;8.77;;;5.10;;
48849;SDS011;63210;53.370;6.770;2023-04-19T03:50:02;9.30;;;6.05;;
48849;SDS011;63210;53.370;6.770;2023-04-19T03:52:27;9.15;;;5.80;;
48849;SDS011;63210;53.370;6.770;2023-04-19T03:54:52;7.88;;;4.55;;
48849;SDS011;63210;53.370;6.770;2023-04-19T03:57:18;9.20;;;4.90;;
48849;SDS011;63210;53.370;6.770;2023-04-19T03:59:43;6.70;;;3.92;;
48849;SDS011;63210;53.370;6.770;2023-04-19T04:02:08;5.33;;;4.00;;
48849;SDS011;63210;53.370;6.770;2023-04-19T04:04:34;3.03;;;2.42;;
48849;SDS011;63210;53.370;6.770;2023-04-19T04:06:59;3.47;;;2.65;;
48849;SDS011;63210;53.370;6.770;2023-04-19T04:09:24;6.53;;;3.22;;
48849;SDS011;63210;53.370;6.770;2023-04-19T04:11:49;3.88;;;2.72;;
48849;SDS011;63210;53.370;6.770;2023-04-19T04:14:15;4.10;;;3.28;;
48849;SDS011;63210;53.370;6.770;2023-04-19T04:16:40;6.78;;;3.13;;
48849;SDS011;63210;53.370;6.770;2023-04-19T04:19:05;3.75;;;3.13;;
48849;SDS011;63210;53.370;6.770;2023-04-19T04:21:31;9.18;;;3.95;;
48849;SDS011;63210;53.370;6.770;2023-04-19T04:23:56;7.88;;;3.97;;
48849;SDS011;63210;53.370;6.770;2023-04-19T04:26:21;6.88;;;2.92;;
48849;SDS011;63210;53.370;6.770;2023-04-19T04:28:49;6.53;;;4.00;;
48849;SDS011;63210;53.370;6.770;2023-04-19T04:31:14;8.02;;;3.42;;
48849;SDS011;63210;53.370;6.770;2023-04-19T04:33:42;3.05;;;2.33;;
48849;SDS011;63210;53.370;6.770;2023-04-19T04:36:07;5.45;;;3.60;;
48849;SDS011;63210;53.370;6.770;2023-04-19T04:38:36;7.15;;;4.45;;
48849;SDS011;63210;53.370;6.770;2023-04-19T04:41:01;4.68;;;3.40;;
48849;SDS011;63210;53.370;6.770;2023-04-19T04:43:26;7.38;;;3.85;;
48849;SDS011;63210;53.370;6.770;2023-04-19T04:45:54;8.48;;;3.70;;
48849;SDS011;63210;53.370;6.770;2023-04-19T04:48:20;6.53;;;3.95;;
48849;SDS011;63210;53.370;6.770;2023-04-19T04:50:46;7.45;;;4.32;;
48849;SDS011;63210;53.370;6.770;2023-04-19T04:53:11;3.78;;;2.80;;
48849;SDS011;63210;53.370;6.770;2023-04-19T04:55:37;8.68;;;3.15;;
48849;SDS011;63210;53.370;6.770;2023-04-19T04:58:02;6.72;;;3.55;;
48849;SDS011;63210;53.370;6.770;2023-04-19T05:00:29;8.90;;;3.97;;
48849;SDS011;63210;53.370;6.770;2023-04-19T05:02:55;3.92;;;3.25;;
48849;SDS011;63210;53.370;6.770;2023-04-19T05:05:20;7.82;;;3.80;;
48849;SDS011;63210;53.370;6.770;2023-04-19T05:07:45;4.28;;;3.17;;
48849;SDS011;63210;53.370;6.770;2023-04-19T05:10:11;5.60;;;4.25;;
48849;SDS011;63210;53.370;6.770;2023-04-19T05:12:37;4.93;;;3.03;;
48849;SDS011;63210;53.370;6.770;2023-04-19T05:15:02;5.07;;;3.65;;
48849;SDS011;63210;53.370;6.770;2023-04-19T05:17:27;5.97;;;4.15;;
48849;SDS011;63210;53.370;6.770;2023-04-19T05:19:53;4.97;;;2.47;;
48849;SDS011;63210;53.370;6.770;2023-04-19T05:22:18;2.20;;;1.60;;
48849;SDS011;63210;53.370;6.770;2023-04-19T05:24:43;6.57;;;2.95;;
48849;SDS011;63210;53.370;6.770;2023-04-19T05:27:09;5.47;;;2.70;;
48849;SDS011;63210;53.370;6.770;2023-04-19T05:29:34;4.82;;;3.70;;
48849;SDS011;63210;53.370;6.770;2023-04-19T05:31:59;6.82;;;3.30;;
48849;SDS011;63210;53.370;6.770;2023-04-19T05:34:25;8.02;;;4.18;;
48849;SDS011;63210;53.370;6.770;2023-04-19T05:36:50;5.93;;;4.03;;
48849;SDS011;63210;53.370;6.770;2023-04-19T05:39:15;5.70;;;3.55;;
48849;SDS011;63210;53.370;6.770;2023-04-19T05:41:41;5.35;;;3.95;;
48849;SDS011;63210;53.370;6.770;2023-04-19T05:44:06;4.13;;;3.33;;
48849;SDS011;63210;53.370;6.770;2023-04-19T05:46:31;5.78;;;4.03;;
48849;SDS011;63210;53.370;6.770;2023-04-19T05:48:57;3.67;;;3.25;;
48849;SDS011;63210;53.370;6.770;2023-04-19T05:51:23;5.43;;;3.30;;
48849;SDS011;63210;53.370;6.770;2023-04-19T05:53:49;5.57;;;3.30;;
48849;SDS011;63210;53.370;6.770;2023-04-19T05:56:14;5.90;;;3.40;;
48849;SDS011;63210;53.370;6.770;2023-04-19T05:58:39;4.32;;;2.25;;
48849;SDS011;63210;53.370;6.770;2023-04-19T06:01:05;5.35;;;3.05;;
48849;SDS011;63210;53.370;6.770;2023-04-19T06:03:31;7.07;;;2.60;;
48849;SDS011;63210;53.370;6.770;2023-04-19T06:05:57;5.60;;;2.80;;
48849;SDS011;63210;53.370;6.770;2023-04-19T06:08:22;5.30;;;2.95;;
48849;SDS011;63210;53.370;6.770;2023-04-19T06:10:47;7.07;;;3.92;;
48849;SDS011;63210;53.370;6.770;2023-04-19T06:13:13;4.18;;;2.60;;
48849;SDS011;63210;53.370;6.770;2023-04-19T06:15:39;2.33;;;2.10;;
48849;SDS011;63210;53.370;6.770;2023-04-19T06:18:04;2.67;;;2.00;;
48849;SDS011;63210;53.370;6.770;2023-04-19T06:20:34;2.97;;;2.65;;
48849;SDS011;63210;53.370;6.770;2023-04-19T06:23:00;5.10;;;2.63;;
48849;SDS011;63210;53.370;6.770;2023-04-19T06:25:25;4.53;;;2.92;;
48849;SDS011;63210;53.370;6.770;2023-04-19T06:27:50;4.18;;;3.15;;
48849;SDS011;63210;53.370;6.770;2023-04-19T06:30:16;5.85;;;2.75;;
48849;SDS011;63210;53.370;6.770;2023-04-19T06:32:41;2.85;;;2.45;;
48849;SDS011;63210;53.370;6.770;2023-04-19T06:35:06;3.50;;;2.25;;
48849;SDS011;63210;53.370;6.770;2023-04-19T06:37:32;5.15;;;3.38;;
48849;SDS011;63210;53.370;6.770;2023-04-19T06:39:57;5.57;;;2.58;;
48849;SDS011;63210;53.370;6.770;2023-04-19T06:42:23;4.43;;;2.30;;
48849;SDS011;63210;53.370;6.770;2023-04-19T06:44:50;7.03;;;2.80;;
48849;SDS011;63210;53.370;6.770;2023-04-19T06:47:17;3.47;;;2.55;;
48849;SDS011;63210;53.370;6.770;2023-04-19T06:49:43;4.43;;;2.35;;
48849;SDS011;63210;53.370;6.770;2023-04-19T06:52:08;3.65;;;2.03;;
48849;SDS011;63210;53.370;6.770;2023-04-19T06:54:33;2.97;;;2.05;;
48849;SDS011;63210;53.370;6.770;2023-04-19T06:56:58;7.97;;;2.22;;
48849;SDS011;63210;53.370;6.770;2023-04-19T06:59:24;5.05;;;2.72;;
48849;SDS011;63210;53.370;6.770;2023-04-19T07:01:52;5.28;;;2.40;;
48849;SDS011;63210;53.370;6.770;2023-04-19T07:04:17;3.33;;;2.30;;
48849;SDS011;63210;53.370;6.770;2023-04-19T07:06:43;2.28;;;1.65;;
48849;SDS011;63210;53.370;6.770;2023-04-19T07:09:08;4.75;;;2.83;;
48849;SDS011;63210;53.370;6.770;2023-04-19T07:11:33;2.47;;;1.83;;
48849;SDS011;63210;53.370;6.770;2023-04-19T07:13:59;2.20;;;1.92;;
48849;SDS011;63210;53.370;6.770;2023-04-19T07:16:27;4.03;;;2.10;;
48849;SDS011;63210;53.370;6.770;2023-04-19T07:18:52;5.05;;;1.95;;
48849;SDS011;63210;53.370;6.770;2023-04-19T07:21:17;1.70;;;1.60;;
48849;SDS011;63210;53.370;6.770;2023-04-19T07:23:43;1.70;;;1.60;;
48849;SDS011;63210;53.370;6.770;2023-04-19T07:26:08;1.38;;;1.17;;
48849;SDS011;63210;53.370;6.770;2023-04-19T07:28:33;2.63;;;2.35;;
48849;SDS011;63210;53.370;6.770;2023-04-19T07:30:58;3.45;;;1.75;;
48849;SDS011;63210;53.370;6.770;2023-04-19T07:33:25;3.92;;;1.92;;
48849;SDS011;63210;53.370;6.770;2023-04-19T07:35:50;3.38;;;2.58;;
48849;SDS011;63210;53.370;6.770;2023-04-19T07:38:16;2.97;;;1.88;;
48849;SDS011;63210;53.370;6.770;2023-04-19T07:40:41;2.60;;;2.28;;
48849;SDS011;63210;53.370;6.770;2023-04-19T07:43:07;4.20;;;2.22;;
48849;SDS011;63210;53.370;6.770;2023-04-19T07:45:32;3.72;;;2.20;;
48849;SDS011;63210;53.370;6.770;2023-04-19T07:47:57;2.65;;;1.75;;
48849;SDS011;63210;53.370;6.770;2023-04-19T07:50:25;2.45;;;1.70;;
48849;SDS011;63210;53.370;6.770;2023-04-19T07:52:51;1.80;;;1.70;;
48849;SDS011;63210;53.370;6.770;2023-04-19T07:55:16;5.35;;;2.30;;
48849;SDS011;63210;53.370;6.770;2023-04-19T07:57:41;2.05;;;1.23;;
48849;SDS011;63210;53.370;6.770;2023-04-19T08:00:12;2.90;;;1.92;;
48849;SDS011;63210;53.370;6.770;2023-04-19T08:02:37;1.83;;;1.48;;
48849;SDS011;63210;53.370;6.770;2023-04-19T08:05:03;1.45;;;1.30;;
48849;SDS011;63210;53.370;6.770;2023-04-19T08:07:28;2.15;;;1.70;;
48849;SDS011;63210;53.370;6.770;2023-04-19T08:09:53;2.83;;;1.65;;
48849;SDS011;63210;53.370;6.770;2023-04-19T08:12:19;1.45;;;1.20;;
48849;SDS011;63210;53.370;6.770;2023-04-19T08:14:44;4.45;;;1.65;;
48849;SDS011;63210;53.370;6.770;2023-04-19T08:17:10;4.95;;;1.55;;
48849;SDS011;63210;53.370;6.770;2023-04-19T08:19:35;2.35;;;1.60;;
48849;SDS011;63210;53.370;6.770;2023-04-19T08:22:01;3.55;;;1.48;;
48849;SDS011;63210;53.370;6.770;2023-04-19T08:24:28;2.25;;;1.80;;
48849;SDS011;63210;53.370;6.770;2023-04-19T08:26:55;4.50;;;3.13;;
48849;SDS011;63210;53.370;6.770;2023-04-19T08:29:20;1.20;;;1.10;;
48849;SDS011;63210;53.370;6.770;2023-04-19T08:31:46;1.90;;;1.35;;
48849;SDS011;63210;53.370;6.770;2023-04-19T08:34:11;1.52;;;1.42;;
48849;SDS011;63210;53.370;6.770;2023-04-19T08:36:36;1.55;;;1.33;;
48849;SDS011;63210;53.370;6.770;2023-04-19T08:39:02;1.20;;;1.00;;
48849;SDS011;63210;53.370;6.770;2023-04-19T08:41:28;2.60;;;1.75;;
48849;SDS011;63210;53.370;6.770;2023-04-19T08:43:54;3.80;;;2.00;;
48849;SDS011;63210;53.370;6.770;2023-04-19T08:46:20;2.75;;;1.67;;
48849;SDS011;63210;53.370;6.770;2023-04-19T08:48:47;2.17;;;1.60;;
48849;SDS011;63210;53.370;6.770;2023-04-19T08:51:13;2.10;;;1.70;;
48849;SDS011;63210;53.370;6.770;2023-04-19T08:53:39;3.55;;;1.55;;
48849;SDS011;63210;53.370;6.770;2023-04-19T08:56:06;3.60;;;1.92;;
48849;SDS011;63210;53.370;6.770;2023-04-19T08:58:31;1.70;;;1.50;;
48849;SDS011;63210;53.370;6.770;2023-04-19T09:00:57;4.85;;;1.83;;
48849;SDS011;63210;53.370;6.770;2023-04-19T09:03:22;5.78;;;1.55;;
48849;SDS011;63210;53.370;6.770;2023-04-19T09:05:47;1.42;;;1.15;;
48849;SDS011;63210;53.370;6.770;2023-04-19T09:08:20;5.13;;;1.43;;
48849;SDS011;63210;53.370;6.770;2023-04-19T09:10:52;3.58;;;1.42;;
48849;SDS011;63210;53.370;6.770;2023-04-19T09:13:18;3.63;;;1.48;;
48849;SDS011;63210;53.370;6.770;2023-04-19T09:15:43;3.72;;;1.50;;
48849;SDS011;63210;53.370;6.770;2023-04-19T09:18:09;4.75;;;1.60;;
48849;SDS011;63210;53.370;6.770;2023-04-19T09:20:38;4.07;;;1.40;;
48849;SDS011;63210;53.370;6.770;2023-04-19T09:23:05;2.40;;;1.40;;
48849;SDS011;63210;53.370;6.770;2023-04-19T09:25:31;3.50;;;1.60;;
48849;SDS011;63210;53.370;6.770;2023-04-19T09:28:09;3.15;;;0.90;;
48849;SDS011;63210;53.370;6.770;2023-04-19T09:30:36;1.52;;;1.23;;
48849;SDS011;63210;53.370;6.770;2023-04-19T09:33:01;1.20;;;1.10;;
48849;SDS011;63210;53.370;6.770;2023-04-19T09:35:42;1.50;;;1.00;;
48849;SDS011;63210;53.370;6.770;2023-04-19T09:38:08;1.60;;;1.38;;
48849;SDS011;63210;53.370;6.770;2023-04-19T09:40:34;2.67;;;1.02;;
48849;SDS011;63210;53.370;6.770;2023-04-19T09:43:00;1.58;;;1.00;;
48849;SDS011;63210;53.370;6.770;2023-04-19T09:45:26;2.45;;;1.30;;
48849;SDS011;63210;53.370;6.770;2023-04-19T09:48:02;2.10;;;1.15;;
48849;SDS011;63210;53.370;6.770;2023-04-19T09:50:28;2.67;;;1.20;;
48849;SDS011;63210;53.370;6.770;2023-04-19T09:52:53;2.30;;;1.63;;
48849;SDS011;63210;53.370;6.770;2023-04-19T09:55:19;2.67;;;1.17;;
48849;SDS011;63210;53.370;6.770;2023-04-19T09:57:45;1.15;;;0.98;;
48849;SDS011;63210;53.370;6.770;2023-04-19T10:00:10;3.00;;;1.05;;
48849;SDS011;63210;53.370;6.770;2023-04-19T10:02:38;1.60;;;1.25;;
48849;SDS011;63210;53.370;6.770;2023-04-19T10:05:04;3.20;;;1.10;;
48849;SDS011;63210;53.370;6.770;2023-04-19T10:07:30;1.60;;;1.50;;
48849;SDS011;63210;53.370;6.770;2023-04-19T10:09:57;2.83;;;1.00;;
48849;SDS011;63210;53.370;6.770;2023-04-19T10:12:23;2.42;;;1.35;;
48849;SDS011;63210;53.370;6.770;2023-04-19T10:14:49;3.72;;;1.38;;
48849;SDS011;63210;53.370;6.770;2023-04-19T10:17:15;1.42;;;1.17;;
48849;SDS011;63210;53.370;6.770;2023-04-19T10:19:40;2.08;;;1.17;;
48849;SDS011;63210;53.370;6.770;2023-04-19T10:22:06;1.60;;;1.40;;
48849;SDS011;63210;53.370;6.770;2023-04-19T10:24:32;1.15;;;1.05;;
48849;SDS011;63210;53.370;6.770;2023-04-19T10:27:10;1.42;;;1.33;;
48849;SDS011;63210;53.370;6.770;2023-04-19T10:32:20;2.90;;;1.35;;
48849;SDS011;63210;53.370;6.770;2023-04-19T10:34:45;5.20;;;1.60;;
48849;SDS011;63210;53.370;6.770;2023-04-19T10:37:14;1.73;;;1.40;;
48849;SDS011;63210;53.370;6.770;2023-04-19T10:39:40;4.95;;;1.30;;
48849;SDS011;63210;53.370;6.770;2023-04-19T10:42:06;3.50;;;1.35;;
48849;SDS011;63210;53.370;6.770;2023-04-19T10:44:31;6.40;;;2.67;;
48849;SDS011;63210;53.370;6.770;2023-04-19T10:46:57;4.22;;;1.50;;
48849;SDS011;63210;53.370;6.770;2023-04-19T10:49:23;4.13;;;1.40;;
48849;SDS011;63210;53.370;6.770;2023-04-19T10:51:51;3.53;;;1.75;;
48849;SDS011;63210;53.370;6.770;2023-04-19T10:54:34;1.83;;;1.38;;
48849;SDS011;63210;53.370;6.770;2023-04-19T10:57:05;7.70;;;1.55;;
48849;SDS011;63210;53.370;6.770;2023-04-19T10:59:31;1.65;;;1.33;;
48849;SDS011;63210;53.370;6.770;2023-04-19T11:02:42;2.50;;;1.60;;
48849;SDS011;63210;53.370;6.770;2023-04-19T11:07:40;5.18;;;3.28;;
48849;SDS011;63210;53.370;6.770;2023-04-19T11:10:06;2.92;;;1.60;;
48849;SDS011;63210;53.370;6.770;2023-04-19T11:12:32;2.42;;;1.70;;
48849;SDS011;63210;53.370;6.770;2023-04-19T11:14:57;3.70;;;2.08;;
48849;SDS011;63210;53.370;6.770;2023-04-19T11:17:28;6.63;;;1.90;;
48849;SDS011;63210;53.370;6.770;2023-04-19T11:22:23;3.00;;;2.10;;
48849;SDS011;63210;53.370;6.770;2023-04-19T11:24:49;2.45;;;1.70;;
48849;SDS011;63210;53.370;6.770;2023-04-19T11:27:14;2.47;;;2.15;;
48849;SDS011;63210;53.370;6.770;2023-04-19T11:29:39;2.80;;;1.85;;
48849;SDS011;63210;53.370;6.770;2023-04-19T11:32:05;2.63;;;2.42;;
48849;SDS011;63210;53.370;6.770;2023-04-19T11:34:39;3.45;;;2.30;;
48849;SDS011;63210;53.370;6.770;2023-04-19T11:37:05;4.03;;;2.40;;
48849;SDS011;63210;53.370;6.770;2023-04-19T11:39:33;7.90;;;2.88;;
48849;SDS011;63210;53.370;6.770;2023-04-19T11:41:58;4.43;;;3.08;;
48849;SDS011;63210;53.370;6.770;2023-04-19T11:44:23;6.05;;;3.15;;
48849;SDS011;63210;53.370;6.770;2023-04-19T11:46:59;6.65;;;2.83;;
48849;SDS011;63210;53.370;6.770;2023-04-19T11:49:27;5.50;;;3.25;;
48849;SDS011;63210;53.370;6.770;2023-04-19T11:51:57;3.05;;;2.42;;
48849;SDS011;63210;53.370;6.770;2023-04-19T11:54:23;5.72;;;2.47;;
48849;SDS011;63210;53.370;6.770;2023-04-19T11:57:07;5.45;;;3.13;;
48849;SDS011;63210;53.370;6.770;2023-04-19T11:59:33;6.55;;;3.65;;
48849;SDS011;63210;53.370;6.770;2023-04-19T12:02:09;5.03;;;2.95;;
48849;SDS011;63210;53.370;6.770;2023-04-19T12:04:35;5.22;;;3.15;;
48849;SDS011;63210;53.370;6.770;2023-04-19T12:07:01;7.03;;;3.80;;
48849;SDS011;63210;53.370;6.770;2023-04-19T12:09:26;8.07;;;3.50;;
48849;SDS011;63210;53.370;6.770;2023-04-19T12:11:51;7.00;;;3.38;;
48849;SDS011;63210;53.370;6.770;2023-04-19T12:14:18;6.18;;;3.28;;
48849;SDS011;63210;53.370;6.770;2023-04-19T12:16:45;7.15;;;3.47;;
48849;SDS011;63210;53.370;6.770;2023-04-19T12:19:11;6.25;;;3.25;;
48849;SDS011;63210;53.370;6.770;2023-04-19T12:21:41;8.90;;;3.58;;
48849;SDS011;63210;53.370;6.770;2023-04-19T12:24:06;9.18;;;3.60;;
48849;SDS011;63210;53.370;6.770;2023-04-19T12:26:32;8.20;;;3.95;;
48849;SDS011;63210;53.370;6.770;2023-04-19T12:28:58;10.13;;;3.75;;
48849;SDS011;63210;53.370;6.770;2023-04-19T12:31:23;11.25;;;4.45;;
48849;SDS011;63210;53.370;6.770;2023-04-19T12:33:52;9.18;;;3.42;;
48849;SDS011;63210;53.370;6.770;2023-04-19T12:36:21;7.53;;;3.25;;
48849;SDS011;63210;53.370;6.770;2023-04-19T12:38:49;8.80;;;3.50;;
48849;SDS011;63210;53.370;6.770;2023-04-19T12:41:15;7.90;;;3.55;;
48849;SDS011;63210;53.370;6.770;2023-04-19T12:43:40;8.17;;;3.70;;
48849;SDS011;63210;53.370;6.770;2023-04-19T12:46:06;7.97;;;4.00;;
48849;SDS011;63210;53.370;6.770;2023-04-19T12:48:31;8.20;;;3.85;;
48849;SDS011;63210;53.370;6.770;2023-04-19T12:50:57;5.13;;;3.22;;
48849;SDS011;63210;53.370;6.770;2023-04-19T12:53:22;5.55;;;3.60;;
48849;SDS011;63210;53.370;6.770;2023-04-19T12:55:48;5.13;;;3.80;;
48849;SDS011;63210;53.370;6.770;2023-04-19T12:58:17;6.35;;;3.50;;
48849;SDS011;63210;53.370;6.770;2023-04-19T13:00:43;6.13;;;4.03;;
48849;SDS011;63210;53.370;6.770;2023-04-19T13:03:08;6.13;;;4.20;;
48849;SDS011;63210;53.370;6.770;2023-04-19T13:05:33;7.97;;;4.22;;
48849;SDS011;63210;53.370;6.770;2023-04-19T13:07:59;10.05;;;4.28;;
48849;SDS011;63210;53.370;6.770;2023-04-19T13:10:24;7.78;;;3.60;;
48849;SDS011;63210;53.370;6.770;2023-04-19T13:12:49;6.50;;;4.32;;
48849;SDS011;63210;53.370;6.770;2023-04-19T13:15:15;9.48;;;4.47;;
48849;SDS011;63210;53.370;6.770;2023-04-19T13:17:40;9.03;;;3.93;;
48849;SDS011;63210;53.370;6.770;2023-04-19T13:20:05;9.77;;;4.20;;
48849;SDS011;63210;53.370;6.770;2023-04-19T13:22:31;5.82;;;4.20;;
48849;SDS011;63210;53.370;6.770;2023-04-19T13:24:57;8.15;;;4.13;;
48849;SDS011;63210;53.370;6.770;2023-04-19T13:27:22;11.02;;;4.32;;
48849;SDS011;63210;53.370;6.770;2023-04-19T13:29:47;11.50;;;4.50;;
48849;SDS011;63210;53.370;6.770;2023-04-19T13:32:12;7.30;;;4.00;;
48849;SDS011;63210;53.370;6.770;2023-04-19T13:34:38;13.53;;;4.77;;
48849;SDS011;63210;53.370;6.770;2023-04-19T13:37:04;7.35;;;3.83;;
48849;SDS011;63210;53.370;6.770;2023-04-19T13:39:30;6.65;;;4.25;;
48849;SDS011;63210;53.370;6.770;2023-04-19T13:41:55;8.73;;;4.22;;
48849;SDS011;63210;53.370;6.770;2023-04-19T13:44:20;7.85;;;4.45;;
48849;SDS011;63210;53.370;6.770;2023-04-19T13:46:46;7.88;;;4.53;;
48849;SDS011;63210;53.370;6.770;2023-04-19T13:49:11;9.45;;;4.25;;
48849;SDS011;63210;53.370;6.770;2023-04-19T13:51:36;9.90;;;4.53;;
48849;SDS011;63210;53.370;6.770;2023-04-19T13:54:01;11.20;;;4.28;;
48849;SDS011;63210;53.370;6.770;2023-04-19T13:56:27;8.38;;;3.90;;
48849;SDS011;63210;53.370;6.770;2023-04-19T13:58:54;7.72;;;3.70;;
48849;SDS011;63210;53.370;6.770;2023-04-19T14:01:19;11.48;;;3.33;;
48849;SDS011;63210;53.370;6.770;2023-04-19T14:03:44;6.93;;;3.78;;
48849;SDS011;63210;53.370;6.770;2023-04-19T14:06:10;9.05;;;3.97;;
48849;SDS011;63210;53.370;6.770;2023-04-19T14:08:35;9.38;;;3.50;;
48849;SDS011;63210;53.370;6.770;2023-04-19T14:11:01;11.10;;;3.35;;
48849;SDS011;63210;53.370;6.770;2023-04-19T14:13:26;6.97;;;3.63;;
48849;SDS011;63210;53.370;6.770;2023-04-19T14:15:51;7.95;;;3.42;;
48849;SDS011;63210;53.370;6.770;2023-04-19T14:18:16;8.48;;;3.75;;
48849;SDS011;63210;53.370;6.770;2023-04-19T14:20:42;7.28;;;3.17;;
48849;SDS011;63210;53.370;6.770;2023-04-19T14:23:07;7.60;;;3.15;;
48849;SDS011;63210;53.370;6.770;2023-04-19T14:25:32;6.70;;;3.15;;
48849;SDS011;63210;53.370;6.770;2023-04-19T14:27:58;10.88;;;3.13;;
48849;SDS011;63210;53.370;6.770;2023-04-19T14:30:23;7.35;;;3.15;;
48849;SDS011;63210;53.370;6.770;2023-04-19T14:32:50;8.30;;;2.97;;
48849;SDS011;63210;53.370;6.770;2023-04-19T14:35:15;9.35;;;2.90;;
48849;SDS011;63210;53.370;6.770;2023-04-19T14:37:40;6.55;;;2.80;;
48849;SDS011;63210;53.370;6.770;2023-04-19T14:40:06;5.03;;;2.58;;
48849;SDS011;63210;53.370;6.770;2023-04-19T14:42:31;7.82;;;2.20;;
48849;SDS011;63210;53.370;6.770;2023-04-19T14:44:57;8.85;;;2.13;;
48849;SDS011;63210;53.370;6.770;2023-04-19T14:47:22;6.88;;;2.53;;